Airfield :
LOGIN :

Register | Disclaimer

   EN    FR    IT 

 










Legend :    VFR   Marginal VFR   IFR   Intensive IFR   Very Intensive IFR
Visi :
Ceiling :
>= 8 km
>= 3000ft
5 to 8 km
1000 to 3000 ft
1500m to 5 km
500 to 1000 ft
800 to 1500m
200 to 500 ft
< 800m
< 200 ft
Symbols :   Thunderstorms  Fog  Heavy snow  Heavy precipitations  Wind > 20 kt
SIGMETs :     Misc.  Thunderstorms  Icing  Turbulence  Mountain Waves  Volcanic Ashes







- Airport Elevation : 18 ft
- IATA code : AJA
- Download approach charts


LFKJ - Ajaccio

CURRENT METAR :
  • 172130Z AUTO 07003KT CAVOK 12/04 Q1015 NOSIG

EXPIRED METARs :
  • 172100Z AUTO 07004KT 030V100 9999 FEW096 SCT110 OVC140 12/03 Q1016 NOSIG
  • 172030Z AUTO 01008KT 9999 -RA FEW052/// BKN070/// OVC094/// ///TCU 13/04 Q1016 BECMG BKN080
  • 172000Z AUTO 02005KT 350V070 9999 BKN074/// OVC088/// ///TCU 13/04 Q1016 BECMG BKN080
  • 171930Z AUTO 03004KT 360V060 9999 FEW086 BKN120 OVC150 12/04 Q1016 NOSIG
  • 171900Z AUTO 02008KT CAVOK 12/04 Q1016 NOSIG

TAF TAF LFKJ
Valid from the 17 at 21:00 until the 18 at 21:00 UTC


172000Z 1721/1821 02006KT 9999 BKN080
BECMG 1808/1810 24006KT SCT030
ATIS : +33 4 95 23 59 85
No reported NOTAMs for that airfield.
4 SIGMETs reported for the Marseille FIR (LFMM) :
 
Embedded thunderstorms
LFMM SIGMET 7 VALID 172300/180300 LFPW
LFMM MARSEILLE FIR/UIR EMBD TS FCST WI N4200 E00345 - N4215 E00230 - N4345 E00245 - N4330 E00345 - N4200 E00345 TOP FL250 STNR NC=
Embedded thunderstorms
LFMM SIGMET 6 VALID 172200/180200 LFPW
LFMM MARSEILLE FIR/UIR EMBD TS OBS WI N4215 E00945 - N4115 E00945 - N4115 E00800 - N3900 E00800 - N3900 E00600 - N4215 E00530 - N4215 E00945 TOP FL260 MOV WNW 10KT NC=
Severe turbulence
LFMM SIGMET 5 VALID 172100/180100 LFPW
LFMM MARSEILLE FIR/UIR SEV TURB FCST WI N4500 E00700 - N4400 E00700 - N4315 E00945 - N4215 E00815 - N4300 E00530 - N4500 E00615 - N4500 E00700 SFC/FL070 STNR NC=
Embedded thunderstorms
LFMM SIGMET 4 VALID 171800/172200 LFPW
LFMM MARSEILLE FIR/UIR EMBD TS FCST WI N4145 E00945 - N4115 E00945 - N4115 E00800 - N3900 E00800 - N3900 E00615 - N4215 E00730 - N4145 E00945 TOP FL260 STNR NC=



MET'MAP, your aeronautical weather chart ! - Copyright ORBIFLY December 2007 - Disclaimer

ORBIFLY MET'MAP TEAM :

Programming & Development : Alexandra Zaïnal
Concept & Development : Baudouin d'Aumeries
Co-Development & Prog : Marc-Olivier Méhu
Technical & hardware support : Manuel Goepfert

Contact : metmap@orbifly.com




SOURCES & CREDITS :

   NOAA